Time;durP1;ratioP1;P1;durP2;ratioP2;P2;SDS_P1;SDS_P2;PMS_P1;PMS_P2;Temp;Humidity;BMP_temperature;BMP_pressure;BME280_temperature;BME280_humidity;BME280_pressure;Samples;Min_cycle;Max_cycle;Signal;HPM_P1;HPM_P2
2023/03/23 00:00:28;;;;;;;;;;;;;;;11.83;58.46;100308.53;5357558;32;34342;-61
2023/03/23 00:03:31;;;;;;;;;;;;;;;12.00;57.79;100302.50;5371084;32;34913;-61
2023/03/23 00:06:34;;;;;;;;;;;;;;;11.50;59.42;100310.84;5346218;32;35209;-82
2023/03/23 00:09:40;;;;;;;;;;;;;;;11.85;58.98;100308.44;5380183;32;34432;-60
2023/03/23 00:12:42;;;;;;;;;;;;;;;12.37;56.70;100298.13;5359636;32;47449;-81
2023/03/23 00:15:42;;;;;;;;;;;;;;;12.04;57.51;100298.78;5371225;32;34888;-82
2023/03/23 00:18:47;;;;;;;;;;;;;;;11.53;59.46;100305.47;5361945;32;37825;-61
2023/03/23 00:21:48;;;;;;;;;;;;;;;11.79;59.11;100300.81;5358224;32;34677;-69
2023/03/23 00:24:51;;;;;;;;;;;;;;;11.90;57.89;100301.19;5364626;32;35197;-60
2023/03/23 00:27:52;;;;;;;;;;;;;;;11.69;58.34;100300.38;5343927;32;35794;-60
2023/03/23 00:31:00;;;;;;;;;;;;;;;11.96;57.09;100292.16;5373939;32;35196;-82
2023/03/23 00:34:03;;;;;;;;;;;;;;;11.73;56.91;100280.03;5355038;32;35547;-60
2023/03/23 00:37:04;;;;;;;;;;;;;;;12.37;55.24;100290.22;5368289;32;35488;-81
2023/03/23 00:40:10;;;;;;;;;;;;;;;12.22;54.78;100289.16;5360883;32;34711;-80
2023/03/23 00:43:13;;;;;;;;;;;;;;;12.07;54.89;100282.84;5353778;32;47310;-82
2023/03/23 00:46:14;;;;;;;;;;;;;;;13.04;49.95;100272.84;5370182;32;34701;-83
2023/03/23 00:49:19;;;;;;;;;;;;;;;12.42;53.43;100285.56;5357672;32;34502;-81
2023/03/23 00:52:20;;;;;;;;;;;;;;;12.35;53.52;100284.16;5370615;32;34925;-80
2023/03/23 00:55:21;;;;;;;;;;;;;;;11.98;55.76;100285.91;5357893;32;35892;-80
2023/03/23 00:58:21;;;;;;;;;;;;;;;11.43;57.01;100282.25;5368438;32;35576;-60
2023/03/23 01:01:22;;;;;;;;;;;;;;;11.80;57.08;100274.41;5364525;32;34821;-60
2023/03/23 01:04:23;;;;;;;;;;;;;;;11.79;57.17;100272.72;5346476;32;35925;-61
2023/03/23 01:07:24;;;;;;;;;;;;;;;11.78;57.12;100273.59;5367627;32;35301;-70
2023/03/23 01:10:26;;;;;;;;;;;;;;;11.42;57.51;100273.50;5358489;32;34725;-81
2023/03/23 01:13:26;;;;;;;;;;;;;;;11.25;58.72;100274.25;5372242;32;34314;-80
2023/03/23 01:16:27;;;;;;;;;;;;;;;11.22;58.54;100273.53;5358897;32;34773;-80
2023/03/23 01:19:28;;;;;;;;;;;;;;;11.20;58.46;100277.97;5368515;32;35131;-80
2023/03/23 01:22:29;;;;;;;;;;;;;;;11.36;57.71;100269.38;5349074;32;33554;-80
2023/03/23 01:25:31;;;;;;;;;;;;;;;10.89;58.81;100271.44;5342871;32;36917;-80
2023/03/23 01:28:31;;;;;;;;;;;;;;;11.01;58.59;100270.03;5373274;32;34883;-60
2023/03/23 01:31:33;;;;;;;;;;;;;;;10.91;58.58;100261.69;5355086;32;35094;-82
2023/03/23 01:34:34;;;;;;;;;;;;;;;11.95;56.03;100264.13;5376901;32;34981;-61
2023/03/23 01:37:36;;;;;;;;;;;;;;;12.28;54.39;100262.53;5358464;32;34983;-81
2023/03/23 01:40:36;;;;;;;;;;;;;;;12.11;54.77;100265.13;5364497;32;34574;-80
2023/03/23 01:43:53;;;;;;;;;;;;;;;11.46;55.92;100267.16;5363007;32;35683;-61
2023/03/23 01:46:54;;;;;;;;;;;;;;;11.53;56.65;100259.88;5359394;32;38386;-82
2023/03/23 01:49:55;;;;;;;;;;;;;;;11.61;54.65;100242.81;5373624;32;35447;-80
2023/03/23 01:52:56;;;;;;;;;;;;;;;12.69;49.86;100249.97;5359123;32;35708;-80
2023/03/23 01:55:57;;;;;;;;;;;;;;;12.78;48.97;100246.00;5370737;32;35745;-62
2023/03/23 01:58:58;;;;;;;;;;;;;;;12.04;52.49;100254.00;5362080;32;35221;-60
2023/03/23 02:02:00;;;;;;;;;;;;;;;11.98;52.83;100253.44;5363980;32;34820;-63
2023/03/23 02:05:02;;;;;;;;;;;;;;;11.76;53.36;100257.03;5333809;32;33077;-80
2023/03/23 02:08:05;;;;;;;;;;;;;;;11.08;56.11;100245.19;5353457;32;34962;-80
2023/03/23 02:11:19;;;;;;;;;;;;;;;11.10;57.06;100253.87;5371252;32;35090;-60
2023/03/23 02:14:20;;;;;;;;;;;;;;;10.85;57.74;100257.53;5355783;32;35183;-79
2023/03/23 02:17:31;;;;;;;;;;;;;;;10.87;57.20;100264.50;5372352;32;34758;-81
2023/03/23 02:20:58;;;;;;;;;;;;;;;10.79;57.19;100262.19;5356340;32;36074;-62
2023/03/23 02:24:10;;;;;;;;;;;;;;;10.57;58.31;100260.47;5338903;32;34508;-81
2023/03/23 02:27:12;;;;;;;;;;;;;;;11.17;56.25;100249.19;5371187;32;45195;-60
2023/03/23 02:30:31;;;;;;;;;;;;;;;10.15;58.89;100256.91;5358865;32;35802;-60
2023/03/23 02:33:36;;;;;;;;;;;;;;;10.99;57.70;100266.63;5369602;32;35663;-61
2023/03/23 02:36:43;;;;;;;;;;;;;;;10.72;58.42;100272.13;5359510;32;35102;-60
2023/03/23 02:39:47;;;;;;;;;;;;;;;10.85;58.29;100270.69;5353746;32;45115;-60
2023/03/23 02:42:49;;;;;;;;;;;;;;;10.57;58.69;100275.38;5369604;32;35168;-61
2023/03/23 02:45:49;;;;;;;;;;;;;;;10.13;59.47;100275.34;5354191;32;34855;-78
2023/03/23 02:48:51;;;;;;;;;;;;;;;11.09;56.34;100275.84;5360767;32;35938;-69
2023/03/23 02:51:51;;;;;;;;;;;;;;;10.99;56.47;100271.88;5359379;32;35023;-68
2023/03/23 02:54:52;;;;;;;;;;;;;;;10.46;58.33;100277.59;5364904;32;34853;-62
2023/03/23 02:57:53;;;;;;;;;;;;;;;10.04;60.02;100283.56;5360345;32;34945;-67
2023/03/23 03:00:56;;;;;;;;;;;;;;;10.28;59.57;100274.78;5343357;32;36238;-63
2023/03/23 03:03:57;;;;;;;;;;;;;;;10.74;58.72;100272.91;5364011;32;34618;-60
2023/03/23 03:07:15;;;;;;;;;;;;;;;10.94;57.04;100265.94;5348964;32;36866;-60
2023/03/23 03:10:16;;;;;;;;;;;;;;;10.19;58.94;100280.38;5371743;32;44430;-60
2023/03/23 03:13:25;;;;;;;;;;;;;;;10.20;59.63;100284.69;5345870;32;35874;-80
2023/03/23 03:16:31;;;;;;;;;;;;;;;9.87;61.44;100280.75;5362851;32;35736;-80
2023/03/23 03:19:38;;;;;;;;;;;;;;;10.03;61.22;100285.34;5373434;32;36163;-60
2023/03/23 03:22:41;;;;;;;;;;;;;;;9.90;61.68;100267.50;5355052;32;45324;-81
2023/03/23 03:25:47;;;;;;;;;;;;;;;10.42;59.34;100283.88;5372909;32;34832;-61
2023/03/23 03:28:47;;;;;;;;;;;;;;;10.18;59.61;100281.28;5359612;32;35062;-81
2023/03/23 03:31:49;;;;;;;;;;;;;;;10.01;59.92;100281.94;5372497;32;36143;-60
2023/03/23 03:34:50;;;;;;;;;;;;;;;10.02;59.54;100288.88;5361068;32;35647;-60
2023/03/23 03:37:51;;;;;;;;;;;;;;;10.46;58.32;100288.09;5358007;32;35813;-71
2023/03/23 03:40:52;;;;;;;;;;;;;;;10.17;58.96;100290.06;5372212;32;35505;-60
2023/03/23 03:43:52;;;;;;;;;;;;;;;10.17;58.68;100289.19;5343090;32;35215;-81
2023/03/23 03:46:53;;;;;;;;;;;;;;;9.47;61.33;100301.44;5374137;32;34851;-62
2023/03/23 03:49:54;;;;;;;;;;;;;;;9.54;61.07;100304.72;5344426;32;35319;-80
2023/03/23 03:52:55;;;;;;;;;;;;;;;9.58;61.54;100303.66;5358426;32;36106;-81
2023/03/23 03:55:59;;;;;;;;;;;;;;;9.74;60.58;100296.97;5359782;32;35123;-80
2023/03/23 03:59:00;;;;;;;;;;;;;;;10.03;59.29;100297.63;5360071;32;35009;-80
2023/03/23 04:02:01;;;;;;;;;;;;;;;9.38;61.76;100308.78;5375689;32;35167;-60
2023/03/23 04:05:03;;;;;;;;;;;;;;;9.58;61.33;100308.91;5339295;32;36210;-80
2023/03/23 04:08:04;;;;;;;;;;;;;;;9.25;62.67;100303.09;5377358;32;35102;-60
2023/03/23 04:11:05;;;;;;;;;;;;;;;9.75;60.99;100303.91;5358156;32;35486;-81
2023/03/23 04:14:06;;;;;;;;;;;;;;;9.74;61.36;100309.22;5357305;32;35356;-60
2023/03/23 04:17:08;;;;;;;;;;;;;;;9.34;62.15;100315.03;5360477;32;35103;-61
2023/03/23 04:20:17;;;;;;;;;;;;;;;9.45;61.74;100318.13;5343558;32;43783;-60
2023/03/23 04:23:19;;;;;;;;;;;;;;;10.05;60.10;100314.19;5375503;32;34838;-61
2023/03/23 04:26:20;;;;;;;;;;;;;;;9.67;59.49;100316.47;5358355;32;35940;-81
2023/03/23 04:29:21;;;;;;;;;;;;;;;9.72;59.84;100318.91;5374680;32;35003;-82
2023/03/23 04:32:22;;;;;;;;;;;;;;;9.83;59.24;100308.88;5359807;32;35222;-69
2023/03/23 04:35:26;;;;;;;;;;;;;;;10.00;58.74;100305.63;5371998;32;34990;-80
2023/03/23 04:38:27;;;;;;;;;;;;;;;9.47;61.33;100317.19;5360696;32;35900;-82
2023/03/23 04:41:29;;;;;;;;;;;;;;;9.92;58.71;100298.03;5353898;32;34397;-77
2023/03/23 04:44:32;;;;;;;;;;;;;;;9.88;59.05;100306.94;5378636;32;35267;-62
2023/03/23 04:47:39;;;;;;;;;;;;;;;9.43;60.74;100314.72;5360278;32;35097;-61
2023/03/23 04:50:40;;;;;;;;;;;;;;;9.73;60.08;100312.75;5373009;32;44935;-80
2023/03/23 04:53:40;;;;;;;;;;;;;;;9.33;61.73;100321.19;5359256;32;35276;-81
2023/03/23 04:56:41;;;;;;;;;;;;;;;9.69;60.73;100324.28;5355979;32;34870;-80
2023/03/23 04:59:43;;;;;;;;;;;;;;;9.30;62.35;100321.31;5351963;32;35338;-81
2023/03/23 05:02:44;;;;;;;;;;;;;;;9.71;62.13;100318.03;5358268;32;34280;-62
2023/03/23 05:05:51;;;;;;;;;;;;;;;9.93;60.19;100312.03;5356599;32;34520;-81
2023/03/23 05:08:52;;;;;;;;;;;;;;;10.38;58.84;100311.19;5360279;32;34696;-80
2023/03/23 05:11:53;;;;;;;;;;;;;;;10.13;59.05;100317.38;5372072;32;34404;-61
2023/03/23 05:14:54;;;;;;;;;;;;;;;10.04;59.83;100315.06;5357394;32;36344;-62
2023/03/23 05:17:55;;;;;;;;;;;;;;;10.16;59.36;100314.63;5369508;32;35180;-62
2023/03/23 05:20:59;;;;;;;;;;;;;;;10.72;57.43;100322.06;5367739;32;36015;-62
2023/03/23 05:24:00;;;;;;;;;;;;;;;10.71;57.35;100320.34;5358884;32;35102;-82
2023/03/23 05:27:03;;;;;;;;;;;;;;;10.21;58.65;100328.44;5364848;32;35169;-81
2023/03/23 05:30:06;;;;;;;;;;;;;;;10.23;58.88;100324.00;5359185;32;34943;-80
2023/03/23 05:33:07;;;;;;;;;;;;;;;10.33;58.54;100311.37;5372058;32;34519;-62
2023/03/23 05:36:10;;;;;;;;;;;;;;;10.51;58.85;100315.91;5357006;32;34389;-81
2023/03/23 05:39:11;;;;;;;;;;;;;;;11.14;57.28;100318.56;5366841;32;44867;-80
2023/03/23 05:42:12;;;;;;;;;;;;;;;12.07;53.54;100306.56;5360446;32;35083;-62
2023/03/23 05:45:13;;;;;;;;;;;;;;;12.22;51.00;100304.13;5356267;32;35274;-61
2023/03/23 05:48:13;;;;;;;;;;;;;;;12.85;48.69;100297.50;5373949;32;35445;-81
2023/03/23 05:51:14;;;;;;;;;;;;;;;13.33;46.93;100292.47;5343223;32;36816;-81
2023/03/23 05:54:15;;;;;;;;;;;;;;;13.28;46.87;100295.38;5358946;32;34449;-63
2023/03/23 05:57:16;;;;;;;;;;;;;;;14.17;45.02;100288.84;5358791;32;34756;-61
2023/03/23 06:00:22;;;;;;;;;;;;;;;14.23;44.31;100290.25;5354000;32;37902;-69
2023/03/23 06:03:23;;;;;;;;;;;;;;;15.13;41.69;100288.59;5352457;32;35590;-61
2023/03/23 06:06:25;;;;;;;;;;;;;;;14.80;41.92;100294.06;5326433;32;35921;-81
2023/03/23 06:09:26;;;;;;;;;;;;;;;15.51;41.37;100281.94;5378153;32;36062;-62
2023/03/23 06:12:27;;;;;;;;;;;;;;;17.26;36.49;100286.50;5356771;32;35867;-80
2023/03/23 06:15:31;;;;;;;;;;;;;;;15.28;40.83;100285.97;5375768;32;34826;-61
2023/03/23 06:18:33;;;;;;;;;;;;;;;17.38;36.13;100297.22;5354465;32;35151;-82
2023/03/23 06:21:34;;;;;;;;;;;;;;;16.34;38.17;100296.16;5371553;32;34836;-82
2023/03/23 06:24:35;;;;;;;;;;;;;;;16.49;38.16;100290.75;5362777;32;35041;-81
2023/03/23 06:27:36;;;;;;;;;;;;;;;16.91;36.47;100291.53;5357874;32;34497;-81
2023/03/23 06:30:36;;;;;;;;;;;;;;;17.54;34.88;100297.87;5373336;32;34257;-80
2023/03/23 06:33:37;;;;;;;;;;;;;;;16.65;36.54;100289.72;5357989;32;34570;-62
2023/03/23 06:36:38;;;;;;;;;;;;;;;16.11;37.96;100273.78;5356134;32;45724;-83
2023/03/23 06:39:39;;;;;;;;;;;;;;;16.98;36.31;100287.50;5347224;32;33021;-61
2023/03/23 06:42:40;;;;;;;;;;;;;;;16.87;36.80;100292.69;5366129;32;34406;-82
2023/03/23 06:45:41;;;;;;;;;;;;;;;17.62;35.00;100292.03;5361512;32;35442;-73
2023/03/23 06:48:42;;;;;;;;;;;;;;;19.08;32.88;100284.03;5360897;32;35278;-79
2023/03/23 06:51:42;;;;;;;;;;;;;;;17.54;34.88;100295.22;5369800;32;34739;-62
2023/03/23 06:54:43;;;;;;;;;;;;;;;18.60;34.45;100291.19;5354466;32;35125;-75
2023/03/23 06:57:44;;;;;;;;;;;;;;;18.22;33.93;100286.00;5368452;32;34746;-62
2023/03/23 07:00:45;;;;;;;;;;;;;;;20.07;31.06;100294.06;5353090;32;34966;-61
2023/03/23 07:03:46;;;;;;;;;;;;;;;19.48;31.82;100286.28;5362008;32;33553;-60
2023/03/23 07:06:47;;;;;;;;;;;;;;;19.66;31.13;100292.88;5348316;32;35615;-61
2023/03/23 07:09:48;;;;;;;;;;;;;;;19.49;31.63;100296.81;5357620;32;35519;-66
2023/03/23 07:12:49;;;;;;;;;;;;;;;19.36;31.89;100296.06;5373054;32;35916;-61
2023/03/23 07:15:50;;;;;;;;;;;;;;;17.93;34.70;100309.38;5361855;32;38598;-61
2023/03/23 07:18:51;;;;;;;;;;;;;;;20.03;31.08;100295.31;5372621;32;35784;-63
2023/03/23 07:21:52;;;;;;;;;;;;;;;19.49;31.30;100301.31;5361365;32;34148;-79
2023/03/23 07:24:52;;;;;;;;;;;;;;;17.68;35.12;100319.03;5358545;32;35087;-72
2023/03/23 07:27:53;;;;;;;;;;;;;;;18.52;34.18;100307.72;5364910;32;34486;-76
2023/03/23 07:30:54;;;;;;;;;;;;;;;18.90;33.30;100306.72;5359432;32;34543;-64
2023/03/23 07:33:56;;;;;;;;;;;;;;;21.02;29.37;100295.16;5374502;32;35760;-61
2023/03/23 07:36:57;;;;;;;;;;;;;;;20.70;30.14;100311.22;5363698;32;34313;-80
2023/03/23 07:39:57;;;;;;;;;;;;;;;19.00;32.63;100320.19;5374021;32;36028;-60
2023/03/23 07:42:59;;;;;;;;;;;;;;;19.08;33.29;100313.31;5359681;32;35795;-60
2023/03/23 07:46:00;;;;;;;;;;;;;;;18.57;34.09;100324.19;5369871;32;34180;-73
2023/03/23 07:49:04;;;;;;;;;;;;;;;21.07;29.59;100318.84;5365579;32;34440;-73
2023/03/23 07:52:05;;;;;;;;;;;;;;;20.99;29.59;100323.94;5368044;32;34491;-73
2023/03/23 07:55:11;;;;;;;;;;;;;;;19.49;31.83;100323.47;5375909;32;34465;-72
2023/03/23 07:58:18;;;;;;;;;;;;;;;20.57;30.78;100315.00;5363670;32;45101;-72
2023/03/23 08:01:18;;;;;;;;;;;;;;;21.00;29.30;100323.00;5371573;32;34462;-73
2023/03/23 08:04:19;;;;;;;;;;;;;;;19.56;31.88;100326.50;5353122;32;34466;-60
2023/03/23 08:07:20;;;;;;;;;;;;;;;18.97;33.36;100331.94;5368628;32;34506;-69
2023/03/23 08:10:21;;;;;;;;;;;;;;;19.19;32.32;100325.81;5364896;32;34440;-61
2023/03/23 08:13:24;;;;;;;;;;;;;;;18.40;33.91;100328.06;5363971;32;35648;-60
2023/03/23 08:16:25;;;;;;;;;;;;;;;19.19;32.60;100316.03;5378386;32;35386;-73
2023/03/23 08:19:26;;;;;;;;;;;;;;;19.12;32.76;100322.75;5366834;32;35511;-74
2023/03/23 08:22:29;;;;;;;;;;;;;;;19.68;31.32;100328.25;5381639;32;34211;-61
2023/03/23 08:25:33;;;;;;;;;;;;;;;19.45;31.96;100324.69;5364833;32;34882;-73
2023/03/23 08:28:34;;;;;;;;;;;;;;;19.23;32.37;100335.28;5381322;32;35271;-74
2023/03/23 08:31:37;;;;;;;;;;;;;;;17.33;35.73;100351.53;5369499;32;34517;-60
2023/03/23 08:34:38;;;;;;;;;;;;;;;17.94;34.93;100348.28;5373102;32;34193;-74
2023/03/23 08:37:41;;;;;;;;;;;;;;;18.32;34.32;100334.94;5381624;32;44824;-74
2023/03/23 08:40:42;;;;;;;;;;;;;;;17.97;34.62;100340.09;5358167;32;34396;-74
2023/03/23 08:43:43;;;;;;;;;;;;;;;18.37;33.79;100336.31;5379763;32;35852;-61
2023/03/23 08:46:44;;;;;;;;;;;;;;;19.06;32.48;100341.03;5354724;32;36556;-60
2023/03/23 08:49:45;;;;;;;;;;;;;;;19.19;32.48;100331.16;5363547;32;32186;-72
2023/03/23 08:52:46;;;;;;;;;;;;;;;18.94;32.69;100333.00;5368030;32;35841;-72
2023/03/23 08:55:48;;;;;;;;;;;;;;;19.37;31.95;100332.41;5350126;32;34837;-62
2023/03/23 08:58:49;;;;;;;;;;;;;;;19.24;32.20;100334.31;5377790;32;34487;-62
2023/03/23 09:01:50;;;;;;;;;;;;;;;20.35;30.51;100327.41;5371250;32;35889;-61
2023/03/23 09:04:52;;;;;;;;;;;;;;;21.70;28.05;100319.69;5364539;32;34514;-83
2023/03/23 09:07:54;;;;;;;;;;;;;;;19.87;31.36;100329.50;5365014;32;34197;-66
2023/03/23 09:10:58;;;;;;;;;;;;;;;20.89;29.47;100320.38;5379123;32;34531;-76
2023/03/23 09:13:59;;;;;;;;;;;;;;;20.44;30.02;100320.47;5373748;32;34564;-64
2023/03/23 09:17:00;;;;;;;;;;;;;;;21.63;28.48;100322.03;5364927;32;35146;-86
2023/03/23 09:20:02;;;;;;;;;;;;;;;23.41;25.91;100308.75;5381748;32;37953;-81
2023/03/23 09:23:05;;;;;;;;;;;;;;;22.56;27.10;100304.94;5357332;32;35060;-84
2023/03/23 09:26:06;;;;;;;;;;;;;;;21.83;28.20;100311.44;5375993;32;34453;-61
2023/03/23 09:29:06;;;;;;;;;;;;;;;23.33;25.98;100292.53;5370005;32;34274;-73
2023/03/23 09:32:07;;;;;;;;;;;;;;;23.41;26.14;100300.72;5380533;32;34667;-79
2023/03/23 09:35:09;;;;;;;;;;;;;;;23.03;26.40;100294.41;5353492;32;43503;-75
2023/03/23 09:38:13;;;;;;;;;;;;;;;24.07;25.30;100289.91;5382537;32;34282;-86
2023/03/23 09:41:33;;;;;;;;;;;;;;;24.12;25.11;100301.03;5349855;32;35786;-60
2023/03/23 09:44:47;;;;;;;;;;;;;;;23.40;26.07;100278.41;5365590;32;36000;-81
2023/03/23 09:48:00;;;;;;;;;;;;;;;24.54;24.91;100281.75;5366494;32;34752;-75
2023/03/23 09:51:22;;;;;;;;;;;;;;;24.85;24.61;100288.41;5350513;32;35271;-60
2023/03/23 09:54:24;;;;;;;;;;;;;;;25.17;24.35;100281.66;5363034;32;36155;-78
2023/03/23 09:57:27;;;;;;;;;;;;;;;26.47;22.80;100268.06;5375356;32;34531;-80
2023/03/23 10:00:36;;;;;;;;;;;;;;;26.93;22.21;100253.09;5363379;32;34317;-79
2023/03/23 10:03:41;;;;;;;;;;;;;;;26.86;22.21;100270.13;5368558;32;33211;-75
2023/03/23 10:06:43;;;;;;;;;;;;;;;25.38;23.87;100274.09;5345642;32;44926;-62
2023/03/23 10:09:45;;;;;;;;;;;;;;;24.90;24.57;100265.59;5376581;32;34602;-64
2023/03/23 10:12:51;;;;;;;;;;;;;;;26.09;22.98;100264.06;5371436;32;34760;-61
2023/03/23 10:15:52;;;;;;;;;;;;;;;25.72;23.46;100270.59;5349777;32;35020;-62
2023/03/23 10:18:59;;;;;;;;;;;;;;;26.97;21.93;100250.87;5376826;32;36200;-87
2023/03/23 10:22:02;;;;;;;;;;;;;;;25.58;23.81;100253.19;5357691;32;35994;-83
2023/03/23 10:25:12;;;;;;;;;;;;;;;25.41;23.70;100251.41;5377833;32;34409;-63
2023/03/23 10:28:16;;;;;;;;;;;;;;;24.34;25.47;100250.63;5355913;32;44448;-83
2023/03/23 10:31:22;;;;;;;;;;;;;;;23.98;25.94;100234.44;5370935;32;34630;-82
2023/03/23 10:34:26;;;;;;;;;;;;;;;24.12;25.80;100225.88;5383420;32;35426;-63
2023/03/23 10:37:27;;;;;;;;;;;;;;;24.34;25.56;100229.12;5367865;32;34711;-61
2023/03/23 10:40:29;;;;;;;;;;;;;;;23.69;26.48;100222.00;5375495;32;34257;-63
2023/03/23 10:43:31;;;;;;;;;;;;;;;23.40;26.62;100234.66;5358201;32;34536;-84
2023/03/23 10:46:31;;;;;;;;;;;;;;;24.39;25.05;100214.25;5374250;32;35997;-74
2023/03/23 10:49:51;;;;;;;;;;;;;;;23.33;26.38;100234.41;5369050;32;34596;-75
2023/03/23 10:52:53;;;;;;;;;;;;;;;22.33;28.04;100226.69;5367321;32;35062;-77
2023/03/23 10:55:55;;;;;;;;;;;;;;;22.97;27.17;100222.63;5372802;32;34347;-74
2023/03/23 10:58:56;;;;;;;;;;;;;;;22.46;27.89;100217.53;5348615;32;33135;-64
2023/03/23 11:01:59;;;;;;;;;;;;;;;21.99;28.69;100218.16;5377384;32;34362;-65
2023/03/23 11:05:01;;;;;;;;;;;;;;;21.97;28.95;100221.94;5331028;32;35395;-68
2023/03/23 11:08:02;;;;;;;;;;;;;;;22.85;27.33;100224.56;5363689;32;34394;-64
2023/03/23 11:11:10;;;;;;;;;;;;;;;22.87;27.38;100224.47;5372690;32;34422;-64
2023/03/23 11:14:16;;;;;;;;;;;;;;;23.01;27.10;100217.81;5356888;32;44428;-75
2023/03/23 11:17:24;;;;;;;;;;;;;;;22.51;27.82;100210.78;5363365;32;32894;-63
2023/03/23 11:20:26;;;;;;;;;;;;;;;22.58;27.13;100200.34;5363511;32;34395;-82
2023/03/23 11:23:28;;;;;;;;;;;;;;;22.60;27.15;100203.72;5363652;32;32980;-67
2023/03/23 11:26:30;;;;;;;;;;;;;;;23.09;26.40;100183.94;5348476;32;34031;-78
2023/03/23 11:29:31;;;;;;;;;;;;;;;23.97;25.16;100184.44;5352492;32;32579;-66
2023/03/23 11:32:32;;;;;;;;;;;;;;;24.88;23.77;100179.75;5378064;32;34507;-76
2023/03/23 11:35:32;;;;;;;;;;;;;;;25.27;23.27;100184.75;5367624;32;34581;-79
2023/03/23 11:38:34;;;;;;;;;;;;;;;25.14;23.24;100195.94;5376139;32;34530;-77
2023/03/23 11:41:35;;;;;;;;;;;;;;;24.57;23.74;100199.00;5355986;32;35719;-78
2023/03/23 11:44:40;;;;;;;;;;;;;;;23.60;25.13;100193.34;5363540;32;34791;-83
2023/03/23 11:47:54;;;;;;;;;;;;;;;23.92;24.68;100197.47;5354718;32;43654;-78
2023/03/23 11:51:01;;;;;;;;;;;;;;;22.83;26.26;100188.19;5365899;32;35675;-76
2023/03/23 11:54:04;;;;;;;;;;;;;;;23.02;26.14;100188.19;5360988;32;34729;-62
2023/03/23 11:57:11;;;;;;;;;;;;;;;23.50;25.55;100182.66;5366373;32;34336;-64
2023/03/23 12:00:15;;;;;;;;;;;;;;;22.52;26.72;100176.81;5375755;32;44775;-87
2023/03/23 12:03:35;;;;;;;;;;;;;;;22.92;26.22;100176.63;5368636;32;35012;-63
2023/03/23 12:06:41;;;;;;;;;;;;;;;25.18;23.23;100183.84;5354718;32;36073;-74
2023/03/23 12:10:01;;;;;;;;;;;;;;;26.72;21.60;100164.62;5379928;32;45188;-83
2023/03/23 12:13:03;;;;;;;;;;;;;;;27.76;20.12;100149.41;5361984;32;33821;-66
2023/03/23 12:16:08;;;;;;;;;;;;;;;27.37;20.33;100152.03;5379470;32;35909;-73
2023/03/23 12:19:13;;;;;;;;;;;;;;;29.13;18.84;100151.22;5366245;32;46995;-78
2023/03/23 12:22:26;;;;;;;;;;;;;;;28.56;19.32;100141.75;5369979;32;34552;-63
2023/03/23 12:25:30;;;;;;;;;;;;;;;30.38;17.25;100121.28;5375908;32;34289;-79
2023/03/23 12:28:44;;;;;;;;;;;;;;;31.99;15.85;100112.03;5362191;32;34391;-64
2023/03/23 12:31:47;;;;;;;;;;;;;;;28.65;18.81;100118.19;5379126;32;44936;-78
2023/03/23 12:34:49;;;;;;;;;;;;;;;27.98;19.47;100108.06;5363532;32;37134;-63
2023/03/23 12:37:55;;;;;;;;;;;;;;;28.88;18.81;100102.75;5375653;32;35995;-79
2023/03/23 12:40:56;;;;;;;;;;;;;;;30.59;17.32;100094.16;5358157;32;34476;-68
2023/03/23 12:43:59;;;;;;;;;;;;;;;31.70;16.07;100100.44;5363357;32;36005;-69
2023/03/23 12:47:07;;;;;;;;;;;;;;;30.56;17.23;100102.66;5373787;32;34418;-65
2023/03/23 12:50:09;;;;;;;;;;;;;;;31.21;16.46;100098.72;5361088;32;35572;-85
2023/03/23 12:53:23;;;;;;;;;;;;;;;32.34;15.65;100094.56;5373441;32;45141;-65
2023/03/23 12:56:34;;;;;;;;;;;;;;;34.21;13.86;100088.31;5366660;32;34429;-66
2023/03/23 12:59:40;;;;;;;;;;;;;;;31.32;16.03;100101.97;5352027;32;34307;-64
2023/03/23 13:02:42;;;;;;;;;;;;;;;28.44;19.13;100109.94;5372697;32;44836;-69
2023/03/23 13:05:44;;;;;;;;;;;;;;;29.41;18.28;100091.84;5346688;32;34460;-76
2023/03/23 13:08:50;;;;;;;;;;;;;;;30.76;16.94;100092.00;5363381;32;34296;-65
2023/03/23 13:11:51;;;;;;;;;;;;;;;31.82;15.76;100084.41;5364321;32;35754;-71
2023/03/23 13:15:08;;;;;;;;;;;;;;;30.92;16.65;100097.13;5374348;32;35036;-65
2023/03/23 13:18:28;;;;;;;;;;;;;;;30.52;17.04;100086.97;5377017;32;44841;-87
2023/03/23 13:21:32;;;;;;;;;;;;;;;28.96;18.48;100093.72;5369980;32;33680;-75
2023/03/23 13:24:34;;;;;;;;;;;;;;;29.36;18.46;100078.84;5367436;32;32925;-81
2023/03/23 13:27:35;;;;;;;;;;;;;;;31.63;16.14;100066.16;5368082;32;35807;-74
2023/03/23 13:30:36;;;;;;;;;;;;;;;31.64;16.19;100067.81;5360025;32;33223;-77
2023/03/23 13:33:37;;;;;;;;;;;;;;;31.01;16.54;100076.06;5367733;32;35724;-81
2023/03/23 13:36:39;;;;;;;;;;;;;;;30.95;16.81;100083.12;5371786;32;45566;-71
2023/03/23 13:39:55;;;;;;;;;;;;;;;29.12;18.48;100076.47;5378877;32;34434;-68
2023/03/23 13:43:05;;;;;;;;;;;;;;;26.96;20.69;100082.84;5356680;32;34736;-72
2023/03/23 13:46:07;;;;;;;;;;;;;;;25.88;21.99;100086.75;5381719;32;35053;-72
2023/03/23 13:49:10;;;;;;;;;;;;;;;24.84;23.37;100077.06;5365945;32;34315;-71
2023/03/23 13:52:22;;;;;;;;;;;;;;;25.06;23.13;100078.41;5372310;32;47213;-70
2023/03/23 13:55:25;;;;;;;;;;;;;;;24.28;24.02;100070.31;5374203;32;35894;-61
2023/03/23 13:58:26;;;;;;;;;;;;;;;24.38;24.09;100067.53;5369179;32;35670;-80
2023/03/23 14:01:39;;;;;;;;;;;;;;;24.48;23.92;100067.47;5339810;32;33215;-63
2023/03/23 14:04:40;;;;;;;;;;;;;;;24.28;24.28;100072.13;5350908;32;44819;-63
2023/03/23 14:07:54;;;;;;;;;;;;;;;23.51;25.37;100069.03;5371174;32;34435;-64
2023/03/23 14:11:03;;;;;;;;;;;;;;;23.69;25.28;100068.22;5342236;32;860546;-75
2023/03/23 14:14:04;;;;;;;;;;;;;;;23.83;24.92;100064.16;5340386;32;35504;-78
2023/03/23 14:17:25;;;;;;;;;;;;;;;22.71;26.67;100054.41;5380692;32;34289;-76
2023/03/23 14:20:29;;;;;;;;;;;;;;;23.03;26.29;100055.88;5368990;32;34692;-63
2023/03/23 14:23:31;;;;;;;;;;;;;;;22.90;26.55;100053.53;5381412;32;36013;-86
2023/03/23 14:26:33;;;;;;;;;;;;;;;22.89;26.45;100053.69;5368107;32;35631;-61
2023/03/23 14:29:34;;;;;;;;;;;;;;;23.78;25.31;100043.19;5370352;32;35985;-63
2023/03/23 14:32:35;;;;;;;;;;;;;;;23.78;25.21;100054.75;5376302;32;34508;-80
2023/03/23 14:35:37;;;;;;;;;;;;;;;22.89;26.52;100051.00;5369824;32;35428;-64
2023/03/23 14:38:39;;;;;;;;;;;;;;;23.96;25.22;100046.72;5383762;32;34231;-65
2023/03/23 14:41:40;;;;;;;;;;;;;;;23.44;25.65;100048.31;5367353;32;34249;-66
2023/03/23 14:44:44;;;;;;;;;;;;;;;22.67;27.00;100055.69;5375430;32;33941;-75
2023/03/23 14:47:46;;;;;;;;;;;;;;;22.95;26.56;100040.53;5365280;32;33330;-65
2023/03/23 14:51:04;;;;;;;;;;;;;;;22.97;26.60;100051.94;5372602;32;34455;-81
2023/03/23 14:54:08;;;;;;;;;;;;;;;23.30;26.02;100054.19;5375355;32;35763;-62
2023/03/23 14:57:16;;;;;;;;;;;;;;;22.79;26.67;100050.16;5369753;32;47044;-67
2023/03/23 15:00:17;;;;;;;;;;;;;;;23.24;26.06;100040.37;5366655;32;34493;-78
2023/03/23 15:03:18;;;;;;;;;;;;;;;22.46;27.31;100049.69;5349001;32;32759;-78
2023/03/23 15:06:20;;;;;;;;;;;;;;;23.00;26.48;100050.81;5347971;32;35695;-78
2023/03/23 15:09:22;;;;;;;;;;;;;;;22.50;27.43;100051.09;5356242;32;34260;-78
2023/03/23 15:12:23;;;;;;;;;;;;;;;23.31;26.49;100045.13;5355036;32;34597;-79
2023/03/23 15:15:28;;;;;;;;;;;;;;;23.12;26.73;100028.19;5370108;32;35920;-78
2023/03/23 15:18:32;;;;;;;;;;;;;;;22.89;27.18;100043.81;5344491;32;32858;-68
2023/03/23 15:21:34;;;;;;;;;;;;;;;23.19;26.63;100037.31;5370300;32;34273;-66
2023/03/23 15:24:38;;;;;;;;;;;;;;;22.78;27.38;100049.31;5354928;32;34258;-65
2023/03/23 15:27:40;;;;;;;;;;;;;;;23.50;26.33;100053.91;5361688;32;44873;-67
2023/03/23 15:30:48;;;;;;;;;;;;;;;22.98;27.04;100044.75;5366057;32;34310;-78
2023/03/23 15:33:52;;;;;;;;;;;;;;;22.91;27.11;100054.37;5351915;32;34710;-65
2023/03/23 15:36:58;;;;;;;;;;;;;;;22.84;27.24;100047.88;5362649;32;34726;-66
2023/03/23 15:39:59;;;;;;;;;;;;;;;23.35;26.48;100055.44;5358083;32;34462;-79
2023/03/23 15:43:19;;;;;;;;;;;;;;;22.97;27.06;100045.75;5372854;32;35408;-78